Time;durP1;ratioP1;P1;durP2;ratioP2;P2;SDS_P1;SDS_P2;PMS_P1;PMS_P2;Temp;Humidity;BMP_temperature;BMP_pressure;BME280_temperature;BME280_humidity;BME280_pressure;Samples;Min_cycle;Max_cycle;Signal;HPM_P1;HPM_P2
2022/04/22 00:00:01;;;;;;;30.40;13.33;;;;;;;13.52;79.28;100064.37;713776;1174;115154;-78
2022/04/22 00:15:24;;;;;;;17.23;8.10;;;;;;;13.48;78.78;100058.58;714745;1174;115793;-78
2022/04/22 00:30:29;;;;;;;13.00;7.88;;;;;;;13.37;79.78;100066.80;713888;1174;114249;-79
2022/04/22 00:45:33;;;;;;;13.95;6.53;;;;;;;13.10;79.48;100062.52;713423;1174;114853;-80
2022/04/22 01:00:38;;;;;;;10.73;5.88;;;;;;;12.81;78.04;100069.78;714658;1174;114874;-79
2022/04/22 01:15:43;;;;;;;7.78;3.53;;;;;;;12.79;77.67;100063.83;714650;1173;114232;-79
2022/04/22 01:30:48;;;;;;;4.30;2.83;;;;;;;12.81;77.65;100071.56;716707;1174;114769;-79
2022/04/22 01:45:52;;;;;;;5.95;3.03;;;;;;;12.60;78.97;100071.92;714514;1174;114536;-80
2022/04/22 02:00:56;;;;;;;8.13;4.10;;;;;;;12.72;79.05;100068.08;714232;1174;114583;-78
2022/04/22 02:16:00;;;;;;;4.40;3.15;;;;;;;12.63;79.28;100076.90;713510;1174;115294;-78
2022/04/22 02:31:11;;;;;;;4.07;2.73;;;;;;;12.21;80.29;100096.77;713458;1173;115177;-79
2022/04/22 02:46:14;;;;;;;6.20;2.75;;;;;;;12.10;81.20;100104.88;713289;1173;115072;-79
2022/04/22 03:01:18;;;;;;;2.90;2.40;;;;;;;11.79;82.71;100118.33;713791;1174;114382;-79
2022/04/22 03:16:26;;;;;;;4.43;3.08;;;;;;;11.72;83.71;100118.09;713196;1174;114455;-79
2022/04/22 03:31:30;;;;;;;5.23;3.23;;;;;;;11.52;85.12;100111.27;713236;1174;114196;-79
2022/04/22 03:46:33;;;;;;;5.10;3.50;;;;;;;11.65;85.45;100127.52;714041;1174;114161;-79
2022/04/22 04:01:37;;;;;;;4.77;3.37;;;;;;;11.86;84.72;100131.71;713194;1174;114695;-78
2022/04/22 04:16:41;;;;;;;5.10;3.65;;;;;;;11.70;85.44;100142.86;713865;1174;114841;-74
2022/04/22 04:31:45;;;;;;;27.43;10.93;;;;;;;11.81;85.25;100163.67;714610;1174;115053;-73
2022/04/22 04:46:57;;;;;;;4.33;3.68;;;;;;;11.85;85.58;100179.98;714098;1174;117083;-73
2022/04/22 05:02:05;;;;;;;5.43;3.88;;;;;;;11.79;85.99;100176.97;714177;1174;114541;-73
2022/04/22 05:17:08;;;;;;;6.63;4.13;;;;;;;11.87;87.11;100196.45;713601;1174;115507;-73
2022/04/22 05:47:35;;;;;;;4.23;3.17;;;;;;;12.01;85.04;100206.52;713591;1174;114039;-79
2022/04/22 06:02:43;;;;;;;5.70;4.30;;;;;;;12.75;84.43;100225.68;713367;1173;115823;-74
2022/04/22 06:17:47;;;;;;;7.68;5.08;;;;;;;12.39;82.77;100236.20;713874;1173;114879;-73
2022/04/22 06:32:53;;;;;;;13.20;7.70;;;;;;;12.67;82.08;100224.77;713666;1173;114942;-79
2022/04/22 06:47:57;;;;;;;18.68;12.28;;;;;;;13.18;78.49;100233.75;713952;1174;114711;-79
2022/04/22 07:03:01;;;;;;;8.03;5.93;;;;;;;13.62;75.50;100254.83;714230;1174;115478;-74
2022/04/22 07:18:07;;;;;;;14.18;7.20;;;;;;;13.68;72.51;100234.92;714443;1174;114296;-79
2022/04/22 07:33:11;;;;;;;6.45;5.20;;;;;;;14.82;71.31;100248.68;716276;1174;114588;-80
2022/04/22 07:48:15;;;;;;;12.55;8.08;;;;;;;15.70;66.82;100255.02;716363;1174;114390;-80
2022/04/22 08:03:19;;;;;;;7.88;5.50;;;;;;;15.95;64.94;100247.86;713634;1174;114519;-80
2022/04/22 08:18:23;;;;;;;6.90;5.53;;;;;;;16.67;63.75;100251.30;714134;1174;114337;-80
2022/04/22 08:33:26;;;;;;;7.50;5.50;;;;;;;17.36;61.23;100268.99;714169;1173;114478;-80
2022/04/22 09:03:52;;;;;;;6.65;4.98;;;;;;;18.44;56.09;100253.50;714341;1174;114930;-80
2022/04/22 09:19:01;;;;;;;5.63;4.80;;;;;;;18.80;55.41;100251.81;713329;1174;114427;-79
2022/04/22 09:34:05;;;;;;;5.57;4.83;;;;;;;19.34;54.69;100247.80;714918;1174;114129;-80
2022/04/22 09:49:11;;;;;;;6.07;4.60;;;;;;;19.66;53.95;100252.70;714052;1173;115132;-79
2022/04/22 10:04:17;;;;;;;6.20;4.85;;;;;;;20.59;53.50;100234.45;724763;1174;114880;-76
2022/04/22 10:19:21;;;;;;;5.10;4.38;;;;;;;21.12;51.04;100238.20;716441;1174;114558;-76
2022/04/22 10:34:43;;;;;;;5.03;4.50;;;;;;;21.66;50.04;100243.50;714493;1174;115073;-78
2022/04/22 10:49:47;;;;;;;22.15;10.78;;;;;;;21.41;50.46;100242.27;715440;1174;115620;-74
2022/04/22 11:05:20;;;;;;;6.87;4.53;;;;;;;21.06;46.33;100237.19;715107;1173;114316;-74
2022/04/22 11:20:24;;;;;;;7.88;5.03;;;;;;;20.18;47.19;100226.55;714993;1174;114527;-79
2022/04/22 11:35:34;;;;;;;5.00;4.10;;;;;;;20.85;48.29;100226.71;714914;1174;115282;-78
2022/04/22 11:50:43;;;;;;;6.83;4.65;;;;;;;21.36;48.58;100220.73;714751;1174;115411;-76
2022/04/22 12:05:49;;;;;;;5.85;3.95;;;;;;;21.38;46.23;100218.69;714857;1174;113971;-76
2022/04/22 12:20:54;;;;;;;3.83;3.43;;;;;;;20.47;46.19;100204.11;713820;1174;115271;-73
2022/04/22 12:36:10;;;;;;;6.60;3.93;;;;;;;20.99;45.63;100184.89;714373;1174;114565;-72
2022/04/22 13:06:49;;;;;;;3.40;3.00;;;;;;;19.78;44.63;100190.76;714200;1174;115054;-86
2022/04/22 13:21:54;;;;;;;4.68;3.45;;;;;;;20.62;44.16;100187.92;714172;1173;114983;-80
2022/04/22 13:36:58;;;;;;;4.75;4.10;;;;;;;20.25;44.71;100195.45;713936;1174;115532;-81
2022/04/22 14:07:25;;;;;;;6.45;5.10;;;;;;;20.43;46.67;100176.23;714192;1174;115507;-74
2022/04/22 14:22:30;;;;;;;10.47;9.57;;;;;;;18.81;46.01;100173.75;713447;1174;115463;-74
2022/04/22 14:37:33;;;;;;;9.28;5.90;;;;;;;26.30;40.79;100168.69;713897;1174;115737;-78
2022/04/22 14:52:37;;;;;;;13.65;9.30;;;;;;;21.71;42.52;100153.75;714029;1174;113980;-74
2022/04/22 15:07:41;;;;;;;19.10;12.63;;;;;;;19.72;44.30;100137.52;715368;1173;115690;-78
2022/04/22 15:38:07;;;;;;;8.70;6.33;;;;;;;19.18;45.52;100125.80;714178;1173;115896;-77
2022/04/22 15:53:10;;;;;;;13.67;7.40;;;;;;;17.72;46.98;100125.05;713711;1174;115036;-79
2022/04/22 16:08:16;;;;;;;23.00;14.25;;;;;;;17.76;48.69;100120.20;714474;1174;115619;-74
2022/04/22 16:23:22;;;;;;;24.40;13.28;;;;;;;17.66;48.65;100125.81;714013;1173;115254;-74
2022/04/22 16:38:26;;;;;;;12.78;8.55;;;;;;;16.97;49.74;100126.89;713590;1174;115935;-72
2022/04/22 16:53:35;;;;;;;27.00;16.63;;;;;;;16.62;50.40;100122.06;713799;1174;114235;-77
2022/04/22 17:08:41;;;;;;;24.68;14.55;;;;;;;16.20;51.31;100126.02;713867;1173;115675;-80
2022/04/22 17:23:44;;;;;;;52.20;25.15;;;;;;;15.96;52.24;100130.47;714365;1174;114520;-76
2022/04/22 17:38:48;;;;;;;133.90;55.73;;;;;;;15.52;53.88;100114.30;714134;1173;115610;-79
2022/04/22 17:53:52;;;;;;;70.27;33.10;;;;;;;14.87;54.70;100121.41;715832;1173;114690;-76
2022/04/22 18:08:56;;;;;;;84.00;38.90;;;;;;;14.26;56.12;100127.00;714959;1174;116160;-77
2022/04/22 18:24:00;;;;;;;192.58;77.30;;;;;;;13.76;57.43;100126.87;714524;1174;116664;-73
2022/04/22 18:39:04;;;;;;;51.68;27.33;;;;;;;13.41;58.23;100130.55;714852;1174;116394;-79
2022/04/22 18:54:09;;;;;;;76.83;35.98;;;;;;;13.02;59.91;100125.68;714751;1174;115321;-78
2022/04/22 19:09:14;;;;;;;164.00;69.35;;;;;;;12.72;59.67;100118.08;714486;1174;115001;-76
2022/04/22 19:24:18;;;;;;;159.35;64.95;;;;;;;12.34;60.68;100106.92;714971;1174;115494;-76
2022/04/22 19:54:44;;;;;;;303.78;78.08;;;;;;;11.39;61.70;100104.56;714788;1174;115842;-77
2022/04/22 20:09:48;;;;;;;150.07;53.03;;;;;;;11.18;63.08;100106.56;714208;1174;115823;-76
2022/04/22 20:24:55;;;;;;;50.85;24.40;;;;;;;10.74;63.76;100092.20;714108;1173;114972;-76
2022/04/22 20:55:22;;;;;;;60.50;26.23;;;;;;;10.45;64.72;100087.81;714454;1174;115956;-76
2022/04/22 21:10:26;;;;;;;62.37;24.43;;;;;;;10.15;65.67;100086.95;713885;1174;115800;-80
2022/04/22 21:25:30;;;;;;;41.67;18.93;;;;;;;9.85;65.70;100076.58;714182;1174;114811;-76
2022/04/22 21:40:34;;;;;;;82.43;29.78;;;;;;;9.60;67.43;100068.25;713459;1174;116144;-78
2022/04/22 21:55:38;;;;;;;93.00;35.27;;;;;;;9.41;68.00;100059.38;713392;1174;114319;-76
2022/04/22 22:10:43;;;;;;;90.83;32.53;;;;;;;9.27;66.95;100044.86;714146;1174;115591;-76
2022/04/22 22:25:47;;;;;;;65.77;28.20;;;;;;;9.11;68.08;100029.66;714376;1174;114283;-76
2022/04/22 22:40:53;;;;;;;59.73;25.23;;;;;;;8.95;68.45;100024.91;714883;1174;114768;-75
2022/04/22 22:55:58;;;;;;;36.58;17.98;;;;;;;8.93;68.40;100000.65;714207;1174;115187;-75
2022/04/22 23:11:01;;;;;;;36.27;17.57;;;;;;;8.89;68.59;99986.18;713895;1173;114697;-75
2022/04/22 23:26:05;;;;;;;23.55;13.40;;;;;;;8.71;68.57;99983.37;714062;1174;115535;-76
2022/04/22 23:41:09;;;;;;;21.67;11.60;;;;;;;8.69;68.46;99972.20;714780;1174;115688;-76
2022/04/22 23:56:14;;;;;;;24.00;12.15;;;;;;;8.58;69.38;99956.61;714365;1174;115541;-75
